Time;durP1;ratioP1;P1;durP2;ratioP2;P2;SDS_P1;SDS_P2;PMS_P1;PMS_P2;Temp;Humidity;BMP_temperature;BMP_pressure;BME280_temperature;BME280_humidity;BME280_pressure;Samples;Min_cycle;Max_cycle;Signal;HPM_P1;HPM_P2
2021/08/21 00:00:26;;;;;;;;;;;19.50;93.90;;;;;;4347425;33;44375;-75
2021/08/21 00:02:54;;;;;;;;;;;19.50;93.90;;;;;;4346996;33;44292;-75
2021/08/21 00:05:21;;;;;;;;;;;19.40;93.90;;;;;;4347478;33;43550;-75
2021/08/21 00:07:53;;;;;;;;;;;19.50;93.90;;;;;;4345990;33;42838;-75
2021/08/21 00:10:26;;;;;;;;;;;19.50;93.90;;;;;;4347404;33;43889;-75
2021/08/21 00:12:53;;;;;;;;;;;19.50;93.90;;;;;;4347281;33;43710;-75
2021/08/21 00:15:23;;;;;;;;;;;19.40;93.90;;;;;;4333403;33;42484;-75
2021/08/21 00:17:59;;;;;;;;;;;19.50;93.90;;;;;;4333774;33;43059;-75
2021/08/21 00:20:29;;;;;;;;;;;19.40;93.90;;;;;;4334131;33;43017;-75
2021/08/21 00:22:58;;;;;;;;;;;19.40;93.90;;;;;;4347140;33;43938;-75
2021/08/21 00:25:28;;;;;;;;;;;19.40;93.90;;;;;;4345909;33;42599;-75
2021/08/21 00:27:58;;;;;;;;;;;19.40;93.90;;;;;;4346885;33;44192;-75
2021/08/21 00:30:30;;;;;;;;;;;19.40;93.90;;;;;;4346602;33;44186;-75
2021/08/21 00:33:00;;;;;;;;;;;19.40;94.00;;;;;;4333259;33;42766;-75
2021/08/21 00:35:30;;;;;;;;;;;19.40;94.00;;;;;;4347195;33;43878;-75
2021/08/21 00:37:58;;;;;;;;;;;19.40;94.00;;;;;;4346892;33;43934;-75
2021/08/21 00:40:28;;;;;;;;;;;19.50;94.00;;;;;;4346788;33;43273;-75
2021/08/21 00:43:00;;;;;;;;;;;19.40;94.00;;;;;;4346778;33;43069;-75
2021/08/21 00:45:30;;;;;;;;;;;19.40;94.00;;;;;;4333048;33;43651;-75
2021/08/21 00:48:00;;;;;;;;;;;19.40;94.00;;;;;;4346163;33;43453;-74
2021/08/21 00:50:30;;;;;;;;;;;19.40;94.00;;;;;;4333139;33;41749;-75
2021/08/21 00:52:57;;;;;;;;;;;19.40;94.00;;;;;;4346652;33;43932;-75
2021/08/21 00:55:25;;;;;;;;;;;19.40;94.00;;;;;;4332786;33;44181;-76
2021/08/21 00:57:52;;;;;;;;;;;19.40;94.00;;;;;;4346777;33;43750;-75
2021/08/21 01:00:22;;;;;;;;;;;19.40;94.10;;;;;;4344957;33;42904;-75
2021/08/21 01:02:52;;;;;;;;;;;19.40;94.10;;;;;;4332843;33;43735;-75
2021/08/21 01:05:22;;;;;;;;;;;19.40;94.10;;;;;;4345348;33;43792;-75
2021/08/21 01:07:49;;;;;;;;;;;19.40;94.10;;;;;;4346046;33;43791;-75
2021/08/21 01:10:20;;;;;;;;;;;19.40;94.10;;;;;;4346055;33;43289;-75
2021/08/21 01:12:51;;;;;;;;;;;19.30;94.10;;;;;;4346441;33;44824;-75
2021/08/21 01:15:25;;;;;;;;;;;19.40;94.10;;;;;;4332683;33;42939;-75
2021/08/21 01:17:53;;;;;;;;;;;19.30;94.10;;;;;;4344751;33;43694;-76
2021/08/21 01:20:23;;;;;;;;;;;19.30;94.10;;;;;;4332734;33;44010;-75
2021/08/21 01:22:53;;;;;;;;;;;19.40;94.10;;;;;;4345788;33;43266;-75
2021/08/21 01:25:24;;;;;;;;;;;19.30;94.00;;;;;;4346955;33;20040;-75
2021/08/21 01:27:54;;;;;;;;;;;19.30;94.10;;;;;;4332322;33;42575;-74
2021/08/21 01:30:21;;;;;;;;;;;19.30;94.10;;;;;;4345582;33;43799;-75
2021/08/21 01:32:57;;;;;;;;;;;19.30;94.00;;;;;;4345744;33;43908;-75
2021/08/21 01:35:27;;;;;;;;;;;19.30;94.00;;;;;;4345630;33;42698;-75
2021/08/21 01:37:56;;;;;;;;;;;19.30;94.00;;;;;;4345553;33;42607;-75
2021/08/21 01:40:26;;;;;;;;;;;19.30;94.00;;;;;;4345474;33;43597;-74
2021/08/21 01:42:53;;;;;;;;;;;19.30;94.00;;;;;;4345436;33;43758;-75
2021/08/21 01:45:20;;;;;;;;;;;19.30;94.00;;;;;;4345457;33;44550;-76
2021/08/21 01:47:50;;;;;;;;;;;19.30;94.00;;;;;;4332133;33;43954;-75
2021/08/21 01:50:19;;;;;;;;;;;19.30;94.00;;;;;;4345794;33;42460;-75
2021/08/21 01:52:47;;;;;;;;;;;19.30;94.00;;;;;;4345331;33;43475;-75
2021/08/21 01:55:14;;;;;;;;;;;19.30;94.00;;;;;;4332454;33;44190;-75
2021/08/21 01:57:48;;;;;;;;;;;19.30;94.00;;;;;;4345717;33;42598;-75
2021/08/21 02:00:24;;;;;;;;;;;19.20;94.00;;;;;;4332258;33;43478;-75
2021/08/21 02:02:52;;;;;;;;;;;19.20;94.00;;;;;;4331826;33;43106;-75
2021/08/21 02:05:22;;;;;;;;;;;19.20;94.00;;;;;;4345266;33;43539;-75
2021/08/21 02:07:52;;;;;;;;;;;19.20;93.90;;;;;;4345799;33;43714;-75
2021/08/21 02:10:20;;;;;;;;;;;19.20;93.90;;;;;;4331996;33;43780;-75
2021/08/21 02:12:50;;;;;;;;;;;19.20;93.90;;;;;;4331912;33;43110;-75
2021/08/21 02:15:20;;;;;;;;;;;19.20;93.90;;;;;;4332353;33;42648;-75
2021/08/21 02:17:49;;;;;;;;;;;19.10;93.90;;;;;;4345312;33;42926;-74
2021/08/21 02:20:20;;;;;;;;;;;19.20;93.90;;;;;;4345408;33;43376;-75
2021/08/21 02:22:54;;;;;;;;;;;19.20;93.90;;;;;;4331558;33;44045;-75
2021/08/21 02:25:21;;;;;;;;;;;19.10;93.90;;;;;;4331784;33;43471;-75
2021/08/21 02:28:06;;;;;;;;;;;19.10;93.90;;;;;;4344995;33;43347;-75
2021/08/21 02:30:39;;;;;;;;;;;19.10;93.90;;;;;;4331999;33;42498;-75
2021/08/21 02:33:07;;;;;;;;;;;19.10;93.90;;;;;;4345384;33;42624;-76
2021/08/21 02:35:37;;;;;;;;;;;19.10;93.80;;;;;;4344934;33;43905;-75
2021/08/21 02:38:05;;;;;;;;;;;19.10;93.80;;;;;;4345116;33;43545;-75
2021/08/21 02:40:32;;;;;;;;;;;19.10;93.80;;;;;;4345460;33;43824;-75
2021/08/21 02:42:59;;;;;;;;;;;19.10;93.90;;;;;;4345247;33;44175;-75
2021/08/21 02:45:28;;;;;;;;;;;19.00;93.80;;;;;;4345318;33;43250;-75
2021/08/21 02:47:58;;;;;;;;;;;19.00;93.80;;;;;;4343568;33;41854;-75
2021/08/21 02:50:28;;;;;;;;;;;19.00;93.80;;;;;;4344779;33;42899;-75
2021/08/21 02:52:55;;;;;;;;;;;19.00;93.80;;;;;;4344947;33;43491;-75
2021/08/21 02:55:24;;;;;;;;;;;19.00;93.80;;;;;;4343677;33;42457;-75
2021/08/21 02:58:00;;;;;;;;;;;19.00;93.80;;;;;;4345248;33;43914;-75
2021/08/21 03:00:30;;;;;;;;;;;19.00;93.80;;;;;;4331465;33;42971;-76
2021/08/21 03:02:58;;;;;;;;;;;19.00;93.80;;;;;;4345083;33;43854;-76
2021/08/21 03:05:28;;;;;;;;;;;19.00;93.80;;;;;;4331715;33;43506;-75
2021/08/21 03:07:55;;;;;;;;;;;19.00;93.80;;;;;;4344728;33;43682;-75
2021/08/21 03:10:22;;;;;;;;;;;18.90;93.80;;;;;;4344992;33;44175;-74
2021/08/21 03:12:52;;;;;;;;;;;18.90;93.80;;;;;;4347143;33;42845;-75
2021/08/21 03:15:24;;;;;;;;;;;18.90;93.80;;;;;;4347633;33;43993;-75
2021/08/21 03:17:54;;;;;;;;;;;18.90;93.80;;;;;;4348207;33;43260;-75
2021/08/21 03:20:22;;;;;;;;;;;18.90;93.80;;;;;;4347754;33;42862;-75
2021/08/21 03:22:50;;;;;;;;;;;18.90;93.80;;;;;;4334726;33;43485;-75
2021/08/21 03:25:17;;;;;;;;;;;18.90;93.80;;;;;;4347936;33;43771;-75
2021/08/21 03:27:44;;;;;;;;;;;18.90;93.70;;;;;;4347888;33;43536;-75
2021/08/21 03:30:14;;;;;;;;;;;18.90;93.70;;;;;;4347895;33;43262;-75
2021/08/21 03:32:44;;;;;;;;;;;18.90;93.70;;;;;;4334310;33;42087;-75
2021/08/21 03:35:14;;;;;;;;;;;18.90;93.70;;;;;;4347746;33;43472;-75
2021/08/21 03:37:52;;;;;;;;;;;18.90;93.70;;;;;;4347808;33;43483;-75
2021/08/21 03:40:22;;;;;;;;;;;18.80;93.60;;;;;;4346104;33;43623;-75
2021/08/21 03:42:49;;;;;;;;;;;18.80;93.60;;;;;;4347307;33;43659;-75
2021/08/21 03:45:17;;;;;;;;;;;18.80;93.60;;;;;;4346238;33;44894;-75
2021/08/21 03:47:47;;;;;;;;;;;18.80;93.60;;;;;;4334674;33;43202;-75
2021/08/21 03:50:22;;;;;;;;;;;18.80;93.70;;;;;;4347096;33;42246;-75
2021/08/21 03:52:52;;;;;;;;;;;18.80;93.70;;;;;;4347488;33;45645;-75
2021/08/21 03:55:21;;;;;;;;;;;18.80;93.70;;;;;;4347250;33;44153;-75
2021/08/21 03:57:57;;;;;;;;;;;18.80;93.70;;;;;;4347183;33;43639;-75
2021/08/21 04:00:27;;;;;;;;;;;18.80;93.70;;;;;;4347275;33;43798;-75
2021/08/21 04:03:00;;;;;;;;;;;18.80;93.70;;;;;;4347259;33;43736;-75
2021/08/21 04:05:30;;;;;;;;;;;18.80;93.70;;;;;;4345829;33;43178;-75
2021/08/21 04:08:00;;;;;;;;;;;18.80;93.70;;;;;;4346726;33;44692;-75
2021/08/21 04:10:27;;;;;;;;;;;18.70;93.70;;;;;;4347012;33;43486;-74
2021/08/21 04:12:54;;;;;;;;;;;18.70;93.70;;;;;;4346723;33;44176;-74
2021/08/21 04:15:21;;;;;;;;;;;18.70;93.60;;;;;;4347188;33;43859;-75
2021/08/21 04:17:50;;;;;;;;;;;18.70;93.60;;;;;;4347084;33;42568;-75
2021/08/21 04:20:24;;;;;;;;;;;18.70;93.60;;;;;;4333652;33;43474;-75
2021/08/21 04:22:51;;;;;;;;;;;18.70;93.70;;;;;;4345496;33;46356;-74
2021/08/21 04:25:23;;;;;;;;;;;18.70;93.60;;;;;;4346961;33;43040;-75
2021/08/21 04:27:53;;;;;;;;;;;18.70;93.70;;;;;;4334139;33;20538;-75
2021/08/21 04:30:24;;;;;;;;;;;18.70;93.70;;;;;;4346566;33;44246;-75
2021/08/21 04:32:54;;;;;;;;;;;18.70;93.60;;;;;;4333680;33;43947;-74
2021/08/21 04:35:21;;;;;;;;;;;18.70;93.60;;;;;;4346346;33;44641;-75
2021/08/21 04:37:48;;;;;;;;;;;18.70;93.60;;;;;;4345835;33;43852;-74
2021/08/21 04:40:20;;;;;;;;;;;18.70;93.60;;;;;;4346689;33;43577;-75
2021/08/21 04:42:47;;;;;;;;;;;18.70;93.60;;;;;;4346866;33;42930;-75
2021/08/21 04:45:15;;;;;;;;;;;18.70;93.60;;;;;;4345681;33;43462;-75
2021/08/21 04:47:47;;;;;;;;;;;18.60;93.60;;;;;;4346533;33;42860;-75
2021/08/21 04:50:17;;;;;;;;;;;18.60;93.50;;;;;;4346476;33;42137;-75
2021/08/21 04:52:44;;;;;;;;;;;18.60;93.50;;;;;;4346154;33;43073;-74
2021/08/21 04:55:16;;;;;;;;;;;18.60;93.60;;;;;;4346531;33;43473;-74
2021/08/21 04:57:46;;;;;;;;;;;18.60;93.50;;;;;;4346602;33;41887;-75
2021/08/21 05:00:19;;;;;;;;;;;18.60;93.50;;;;;;4346241;33;43470;-75
2021/08/21 05:02:47;;;;;;;;;;;18.60;93.50;;;;;;4346315;33;43144;-75
2021/08/21 05:05:14;;;;;;;;;;;18.60;93.50;;;;;;4346350;33;42119;-75
2021/08/21 05:07:45;;;;;;;;;;;18.60;93.50;;;;;;4332711;33;43102;-75
2021/08/21 05:10:16;;;;;;;;;;;18.60;93.50;;;;;;4346337;33;43097;-75
2021/08/21 05:12:44;;;;;;;;;;;18.50;93.40;;;;;;4346388;33;43790;-75
2021/08/21 05:15:12;;;;;;;;;;;18.60;93.50;;;;;;4346146;33;43854;-75
2021/08/21 05:17:39;;;;;;;;;;;18.50;93.40;;;;;;4346139;33;44219;-74
2021/08/21 05:20:29;;;;;;;;;;;18.50;93.40;;;;;;4345776;33;44187;-75
2021/08/21 05:23:05;;;;;;;;;;;18.50;93.40;;;;;;4346127;33;43651;-75
2021/08/21 05:25:40;;;;;;;;;;;18.50;93.40;;;;;;4346253;33;45763;-74
2021/08/21 05:28:10;;;;;;;;;;;18.50;93.40;;;;;;4346335;33;43520;-75
2021/08/21 05:30:38;;;;;;;;;;;18.50;93.40;;;;;;4332385;33;42963;-75
2021/08/21 05:33:13;;;;;;;;;;;18.60;93.50;;;;;;4332834;33;41742;-75
2021/08/21 05:35:40;;;;;;;;;;;18.50;93.40;;;;;;4331609;33;42927;-75
2021/08/21 05:38:07;;;;;;;;;;;18.50;93.40;;;;;;4345767;33;43432;-75
2021/08/21 05:40:37;;;;;;;;;;;18.50;93.40;;;;;;4345885;33;42865;-74
2021/08/21 05:43:10;;;;;;;;;;;18.50;93.40;;;;;;4345954;33;43669;-75
2021/08/21 05:45:37;;;;;;;;;;;18.50;93.40;;;;;;4345489;33;44331;-74
2021/08/21 05:48:05;;;;;;;;;;;18.50;93.40;;;;;;4345930;33;43319;-75
2021/08/21 05:50:32;;;;;;;;;;;18.50;93.50;;;;;;4345262;33;44028;-75
2021/08/21 05:53:02;;;;;;;;;;;18.50;93.50;;;;;;4332736;33;43486;-75
2021/08/21 05:55:29;;;;;;;;;;;18.40;93.50;;;;;;4332659;33;43241;-74
2021/08/21 05:57:56;;;;;;;;;;;18.40;93.50;;;;;;4345780;33;43849;-75
2021/08/21 06:00:24;;;;;;;;;;;18.40;93.50;;;;;;4345689;33;43348;-75
2021/08/21 06:02:52;;;;;;;;;;;18.40;93.50;;;;;;4345545;33;43469;-75
2021/08/21 06:05:21;;;;;;;;;;;18.40;93.60;;;;;;4345861;33;44219;-75
2021/08/21 06:07:51;;;;;;;;;;;18.40;93.60;;;;;;4332396;33;43747;-75
2021/08/21 06:10:25;;;;;;;;;;;18.40;93.60;;;;;;4345510;33;43626;-75
2021/08/21 06:12:52;;;;;;;;;;;18.40;93.60;;;;;;4345190;33;42564;-75
2021/08/21 06:15:19;;;;;;;;;;;18.40;93.70;;;;;;4345199;33;42764;-74
2021/08/21 06:17:49;;;;;;;;;;;18.40;93.70;;;;;;4345259;33;43271;-75
2021/08/21 06:20:22;;;;;;;;;;;18.40;93.80;;;;;;4345110;33;44186;-75
2021/08/21 06:22:49;;;;;;;;;;;18.40;93.80;;;;;;4345620;33;43855;-75
2021/08/21 06:25:16;;;;;;;;;;;18.40;93.80;;;;;;4331724;33;42590;-75
2021/08/21 06:27:43;;;;;;;;;;;18.40;93.80;;;;;;4344174;33;43259;-75
2021/08/21 06:30:11;;;;;;;;;;;18.40;93.80;;;;;;4344988;33;43171;-75
2021/08/21 06:32:38;;;;;;;;;;;18.40;93.80;;;;;;4331671;33;42878;-74
2021/08/21 06:35:05;;;;;;;;;;;18.40;93.80;;;;;;4345229;33;43569;-74
2021/08/21 06:37:32;;;;;;;;;;;18.50;93.90;;;;;;4345277;33;43480;-75
2021/08/21 06:40:02;;;;;;;;;;;18.40;93.90;;;;;;4331969;33;44709;-75
2021/08/21 06:42:29;;;;;;;;;;;18.40;94.00;;;;;;4344920;33;43190;-75
2021/08/21 06:44:59;;;;;;;;;;;18.50;94.00;;;;;;4343927;33;43162;-74
2021/08/21 06:47:26;;;;;;;;;;;18.50;94.00;;;;;;4345067;33;43063;-75
2021/08/21 06:49:53;;;;;;;;;;;18.40;94.00;;;;;;4331945;33;44034;-75
2021/08/21 06:52:21;;;;;;;;;;;18.50;94.00;;;;;;4345339;33;43121;-75
2021/08/21 06:54:48;;;;;;;;;;;18.50;94.00;;;;;;4345091;33;42169;-75
2021/08/21 06:57:15;;;;;;;;;;;18.50;94.00;;;;;;4344857;33;43451;-74
2021/08/21 06:59:42;;;;;;;;;;;18.50;94.10;;;;;;4345187;33;43545;-74
2021/08/21 07:02:09;;;;;;;;;;;18.50;94.10;;;;;;4343394;33;42882;-74
2021/08/21 07:04:42;;;;;;;;;;;18.40;94.10;;;;;;4345282;33;43846;-75
2021/08/21 07:07:09;;;;;;;;;;;18.50;94.10;;;;;;4345138;33;43504;-75
2021/08/21 07:09:37;;;;;;;;;;;18.50;94.10;;;;;;4344657;33;44243;-74
2021/08/21 07:12:07;;;;;;;;;;;18.50;94.10;;;;;;4344757;33;44651;-74
2021/08/21 07:14:34;;;;;;;;;;;18.50;94.10;;;;;;4344733;33;42897;-75
2021/08/21 07:17:01;;;;;;;;;;;18.50;94.20;;;;;;4345100;33;42418;-74
2021/08/21 07:19:31;;;;;;;;;;;18.50;94.10;;;;;;4332127;33;43069;-74
2021/08/21 07:21:58;;;;;;;;;;;18.50;94.10;;;;;;4344868;33;43240;-74
2021/08/21 07:24:31;;;;;;;;;;;18.50;94.20;;;;;;4344650;33;44869;-74
2021/08/21 07:27:04;;;;;;;;;;;18.50;94.20;;;;;;4344815;33;43090;-74
2021/08/21 07:29:33;;;;;;;;;;;18.50;94.20;;;;;;4344574;33;44010;-74
2021/08/21 07:32:04;;;;;;;;;;;18.50;94.20;;;;;;4343711;33;43825;-74
2021/08/21 07:34:31;;;;;;;;;;;18.50;94.30;;;;;;4344981;33;43293;-74
2021/08/21 07:36:58;;;;;;;;;;;18.50;94.30;;;;;;4344601;33;42558;-74
2021/08/21 07:39:25;;;;;;;;;;;18.60;94.30;;;;;;4343745;33;44046;-74
2021/08/21 07:41:52;;;;;;;;;;;18.50;94.30;;;;;;4345020;33;43196;-74
2021/08/21 07:44:22;;;;;;;;;;;18.50;94.30;;;;;;4331250;33;42833;-74
2021/08/21 07:46:50;;;;;;;;;;;18.60;94.30;;;;;;4331599;33;43197;-74
2021/08/21 07:49:17;;;;;;;;;;;18.60;94.30;;;;;;4331195;33;44160;-74
2021/08/21 07:51:44;;;;;;;;;;;18.60;94.30;;;;;;4344545;33;43751;-74
2021/08/21 07:54:11;;;;;;;;;;;18.60;94.40;;;;;;4331476;33;43811;-74
2021/08/21 07:56:41;;;;;;;;;;;18.60;94.40;;;;;;4344650;33;43714;-74
2021/08/21 07:59:08;;;;;;;;;;;18.60;94.40;;;;;;4346346;33;43251;-74
2021/08/21 08:01:36;;;;;;;;;;;18.60;94.40;;;;;;4346322;33;43906;-74
2021/08/21 08:04:03;;;;;;;;;;;18.60;94.40;;;;;;4347100;33;43275;-75
2021/08/21 08:06:30;;;;;;;;;;;18.60;94.40;;;;;;4347012;33;43084;-74
2021/08/21 08:09:03;;;;;;;;;;;18.60;94.40;;;;;;4334640;33;42273;-74
2021/08/21 08:11:33;;;;;;;;;;;18.60;94.40;;;;;;4346732;33;43535;-74
2021/08/21 08:14:02;;;;;;;;;;;18.70;94.40;;;;;;4347113;33;44413;-75
2021/08/21 08:16:29;;;;;;;;;;;18.70;94.40;;;;;;4346830;33;43735;-75
2021/08/21 08:18:57;;;;;;;;;;;18.70;94.40;;;;;;4347214;33;43746;-74
2021/08/21 08:21:24;;;;;;;;;;;18.70;94.40;;;;;;4346926;33;43478;-75
2021/08/21 08:23:53;;;;;;;;;;;18.70;94.40;;;;;;4347087;33;43263;-75
2021/08/21 08:26:24;;;;;;;;;;;18.70;94.40;;;;;;4346940;33;44120;-74
2021/08/21 08:28:51;;;;;;;;;;;18.70;94.40;;;;;;4333551;33;42134;-76
2021/08/21 08:31:18;;;;;;;;;;;18.70;94.40;;;;;;4346563;33;43763;-75
2021/08/21 08:33:45;;;;;;;;;;;18.80;94.40;;;;;;4346509;33;43715;-75
2021/08/21 08:36:12;;;;;;;;;;;18.80;94.50;;;;;;4346740;33;41971;-75
2021/08/21 08:38:39;;;;;;;;;;;18.70;94.40;;;;;;4346399;33;43043;-75
2021/08/21 08:41:10;;;;;;;;;;;18.80;94.40;;;;;;4346820;33;43500;-75
2021/08/21 08:43:40;;;;;;;;;;;18.80;94.40;;;;;;4346961;33;43734;-75
2021/08/21 08:46:13;;;;;;;;;;;18.80;94.40;;;;;;4334230;33;44799;-74
2021/08/21 08:48:40;;;;;;;;;;;18.90;94.40;;;;;;4333018;33;42674;-74
2021/08/21 08:51:11;;;;;;;;;;;18.90;94.40;;;;;;4346548;33;43098;-75
2021/08/21 08:53:38;;;;;;;;;;;18.90;94.40;;;;;;4346711;33;43408;-75
2021/08/21 08:56:05;;;;;;;;;;;18.90;94.30;;;;;;4332988;33;43695;-75
2021/08/21 08:58:32;;;;;;;;;;;18.90;94.30;;;;;;4333086;33;42720;-75
2021/08/21 09:01:06;;;;;;;;;;;18.90;94.30;;;;;;4347310;33;19990;-75
2021/08/21 09:03:33;;;;;;;;;;;19.00;94.30;;;;;;4346161;33;43044;-75
2021/08/21 09:06:03;;;;;;;;;;;19.00;94.30;;;;;;4346048;33;43090;-75
2021/08/21 09:08:32;;;;;;;;;;;19.00;94.30;;;;;;4346001;33;43796;-75
2021/08/21 09:11:00;;;;;;;;;;;19.00;94.20;;;;;;4345986;33;42126;-75
2021/08/21 09:13:28;;;;;;;;;;;19.10;94.30;;;;;;4346137;33;44219;-75
2021/08/21 09:15:58;;;;;;;;;;;19.10;94.30;;;;;;4346264;33;43700;-75
2021/08/21 09:18:26;;;;;;;;;;;19.10;94.30;;;;;;4346321;33;43020;-75
2021/08/21 09:21:14;;;;;;;;;;;19.10;94.20;;;;;;4346330;33;43547;-75
2021/08/21 09:23:43;;;;;;;;;;;19.10;94.20;;;;;;4332762;33;42834;-75
2021/08/21 09:26:13;;;;;;;;;;;19.10;94.20;;;;;;4332523;33;44043;-74
2021/08/21 09:28:51;;;;;;;;;;;19.20;94.20;;;;;;4345774;33;43606;-74
2021/08/21 09:31:20;;;;;;;;;;;19.20;94.10;;;;;;4346440;33;20031;-75
2021/08/21 09:33:53;;;;;;;;;;;19.20;94.10;;;;;;4345612;33;43579;-75
2021/08/21 09:36:34;;;;;;;;;;;19.20;94.10;;;;;;4346344;33;43902;-74
2021/08/21 09:39:02;;;;;;;;;;;19.20;94.10;;;;;;4345824;33;43647;-74
2021/08/21 09:41:29;;;;;;;;;;;19.20;94.00;;;;;;4345939;33;43777;-75
2021/08/21 09:44:07;;;;;;;;;;;19.20;94.00;;;;;;4345949;33;43228;-75
2021/08/21 09:46:37;;;;;;;;;;;19.30;94.10;;;;;;4345628;33;43708;-75
2021/08/21 09:49:06;;;;;;;;;;;19.20;94.00;;;;;;4332521;33;45557;-75
2021/08/21 09:51:37;;;;;;;;;;;19.30;94.00;;;;;;4332088;33;42121;-75
2021/08/21 09:54:06;;;;;;;;;;;19.30;94.00;;;;;;4332594;33;43732;-75
2021/08/21 09:56:40;;;;;;;;;;;19.30;94.00;;;;;;4332484;33;43670;-75
2021/08/21 09:59:08;;;;;;;;;;;19.30;94.00;;;;;;4345998;33;44282;-74
2021/08/21 10:01:35;;;;;;;;;;;19.30;94.00;;;;;;4333149;33;19997;-75
2021/08/21 10:04:06;;;;;;;;;;;19.30;94.00;;;;;;4345545;33;42666;-74
2021/08/21 10:06:37;;;;;;;;;;;19.40;94.00;;;;;;4345696;33;43709;-74
2021/08/21 10:09:08;;;;;;;;;;;19.40;93.90;;;;;;4345532;33;44235;-74
2021/08/21 10:11:42;;;;;;;;;;;19.40;93.90;;;;;;4343988;33;43066;-74
2021/08/21 10:14:11;;;;;;;;;;;19.40;93.90;;;;;;4345834;33;43031;-74
2021/08/21 10:16:41;;;;;;;;;;;19.40;93.90;;;;;;4345380;33;42563;-74
2021/08/21 10:19:08;;;;;;;;;;;19.40;93.90;;;;;;4332294;33;43668;-74
2021/08/21 10:21:35;;;;;;;;;;;19.40;93.90;;;;;;4344488;33;44237;-75
2021/08/21 10:24:06;;;;;;;;;;;19.40;93.80;;;;;;4345508;33;42964;-75
2021/08/21 10:26:39;;;;;;;;;;;19.50;93.80;;;;;;4332015;33;44310;-74
2021/08/21 10:29:11;;;;;;;;;;;19.50;93.80;;;;;;4331893;33;42395;-74
2021/08/21 10:31:38;;;;;;;;;;;19.40;93.80;;;;;;4345388;33;44083;-74
2021/08/21 10:34:06;;;;;;;;;;;19.50;93.80;;;;;;4345344;33;43383;-74
2021/08/21 10:36:42;;;;;;;;;;;19.50;93.80;;;;;;4345358;33;43865;-74
2021/08/21 10:39:35;;;;;;;;;;;19.50;93.70;;;;;;4344859;33;42956;-74
2021/08/21 10:42:20;;;;;;;;;;;19.60;93.80;;;;;;4339794;33;43197;-74
2021/08/21 10:44:50;;;;;;;;;;;19.60;93.70;;;;;;4345155;33;43044;-74
2021/08/21 10:47:33;;;;;;;;;;;19.60;93.70;;;;;;4331812;33;42922;-73
2021/08/21 10:50:04;;;;;;;;;;;19.70;93.70;;;;;;4345042;33;42789;-74
2021/08/21 10:52:47;;;;;;;;;;;19.60;93.60;;;;;;4345242;33;43125;-74
2021/08/21 10:55:15;;;;;;;;;;;19.70;93.50;;;;;;4344706;33;42533;-74
2021/08/21 10:58:01;;;;;;;;;;;19.70;93.60;;;;;;4344913;33;42879;-74
2021/08/21 11:00:37;;;;;;;;;;;19.80;93.60;;;;;;4345239;33;43851;-74
2021/08/21 11:03:11;;;;;;;;;;;19.80;93.50;;;;;;4345364;33;20153;-74
2021/08/21 11:05:57;;;;;;;;;;;19.80;93.50;;;;;;4345172;33;44387;-74
2021/08/21 11:08:27;;;;;;;;;;;19.80;93.50;;;;;;4344869;33;42831;-74
2021/08/21 11:11:16;;;;;;;;;;;19.90;93.50;;;;;;4345084;33;43938;-74
2021/08/21 11:13:49;;;;;;;;;;;19.90;93.40;;;;;;4344005;33;44844;-74
2021/08/21 11:16:23;;;;;;;;;;;20.00;93.40;;;;;;4343533;33;42179;-74
2021/08/21 11:18:51;;;;;;;;;;;20.00;93.40;;;;;;4345154;33;42942;-74
2021/08/21 11:21:30;;;;;;;;;;;20.00;93.30;;;;;;4344807;33;43728;-74
2021/08/21 11:23:58;;;;;;;;;;;20.10;93.40;;;;;;4345130;33;43743;-74
2021/08/21 11:26:25;;;;;;;;;;;20.10;93.30;;;;;;4344665;33;43278;-74
2021/08/21 11:29:05;;;;;;;;;;;20.10;93.30;;;;;;4344673;33;43581;-74
2021/08/21 11:31:50;;;;;;;;;;;20.00;93.30;;;;;;4331617;33;44028;-74
2021/08/21 11:34:18;;;;;;;;;;;20.10;93.30;;;;;;4348050;33;20146;-74
2021/08/21 11:36:55;;;;;;;;;;;20.10;93.30;;;;;;4333970;33;44205;-74
2021/08/21 11:39:22;;;;;;;;;;;20.10;93.30;;;;;;4347857;33;44009;-74
2021/08/21 11:41:55;;;;;;;;;;;20.10;93.30;;;;;;4347427;33;43580;-74
2021/08/21 11:44:30;;;;;;;;;;;20.10;93.20;;;;;;4347826;33;43850;-74
2021/08/21 11:47:07;;;;;;;;;;;20.20;93.30;;;;;;4334451;33;43908;-74
2021/08/21 11:49:34;;;;;;;;;;;20.20;93.20;;;;;;4347470;33;44293;-74
2021/08/21 11:52:02;;;;;;;;;;;20.20;93.20;;;;;;4333941;33;43597;-74
2021/08/21 11:54:29;;;;;;;;;;;20.20;93.20;;;;;;4347061;33;42511;-75
2021/08/21 11:56:57;;;;;;;;;;;20.20;93.10;;;;;;4347508;33;43688;-74
2021/08/21 11:59:24;;;;;;;;;;;20.30;93.10;;;;;;4347208;33;42950;-74
2021/08/21 12:02:13;;;;;;;;;;;20.40;93.20;;;;;;4346277;33;42073;-75
2021/08/21 12:04:55;;;;;;;;;;;20.40;93.10;;;;;;4318351;33;20020;-74
2021/08/21 12:07:32;;;;;;;;;;;20.40;92.90;;;;;;4318114;33;43121;-74
2021/08/21 12:10:00;;;;;;;;;;;20.50;93.00;;;;;;4317957;33;44187;-74
2021/08/21 12:12:31;;;;;;;;;;;20.50;93.10;;;;;;4316253;33;43910;-74
2021/08/21 12:14:59;;;;;;;;;;;20.50;93.00;;;;;;4316702;33;42244;-74
2021/08/21 12:17:30;;;;;;;;;;;20.60;93.10;;;;;;4317726;33;42174;-74
2021/08/21 12:19:59;;;;;;;;;;;20.50;93.00;;;;;;4317799;33;43457;-74
2021/08/21 12:22:27;;;;;;;;;;;20.60;93.10;;;;;;4317878;33;43109;-75
2021/08/21 12:24:55;;;;;;;;;;;20.60;93.10;;;;;;4317299;33;43638;-74
2021/08/21 12:27:26;;;;;;;;;;;20.60;93.10;;;;;;4317252;33;43745;-75
2021/08/21 12:30:13;;;;;;;;;;;20.60;92.90;;;;;;4317741;33;44215;-75
2021/08/21 12:32:40;;;;;;;;;;;20.70;93.10;;;;;;4317109;33;44075;-74
2021/08/21 12:35:08;;;;;;;;;;;20.70;93.00;;;;;;4316980;33;19998;-74
2021/08/21 12:37:39;;;;;;;;;;;20.80;92.90;;;;;;4317063;33;42347;-75
2021/08/21 12:40:07;;;;;;;;;;;20.80;93.00;;;;;;4317227;33;43204;-74
2021/08/21 12:42:34;;;;;;;;;;;20.90;93.00;;;;;;4317272;33;42836;-74
2021/08/21 12:45:16;;;;;;;;;;;20.90;92.80;;;;;;4316438;33;44913;-75
2021/08/21 12:47:43;;;;;;;;;;;20.90;93.00;;;;;;4317539;33;43444;-75
2021/08/21 12:50:10;;;;;;;;;;;20.90;92.90;;;;;;4317356;33;45063;-75
2021/08/21 12:52:38;;;;;;;;;;;20.90;92.90;;;;;;4316008;33;42804;-75
2021/08/21 12:55:06;;;;;;;;;;;20.90;92.70;;;;;;4317158;33;44191;-74
2021/08/21 12:57:37;;;;;;;;;;;21.00;92.80;;;;;;4317098;33;42662;-74
2021/08/21 13:00:08;;;;;;;;;;;21.00;92.70;;;;;;4316364;33;43097;-74
2021/08/21 13:02:40;;;;;;;;;;;21.10;92.80;;;;;;4318330;33;44192;-75
2021/08/21 13:05:11;;;;;;;;;;;21.10;92.60;;;;;;4330907;33;44279;-74
2021/08/21 13:07:44;;;;;;;;;;;21.20;92.70;;;;;;4331701;33;42207;-74
2021/08/21 13:10:12;;;;;;;;;;;21.20;92.80;;;;;;4331263;33;42630;-74
2021/08/21 13:12:40;;;;;;;;;;;21.30;92.70;;;;;;4330721;33;42834;-75
2021/08/21 13:15:08;;;;;;;;;;;21.30;92.70;;;;;;4331263;33;42864;-74
2021/08/21 13:17:38;;;;;;;;;;;21.30;92.70;;;;;;4331262;33;43650;-74
2021/08/21 13:20:09;;;;;;;;;;;21.20;92.60;;;;;;4331121;33;42577;-74
2021/08/21 13:22:40;;;;;;;;;;;21.30;92.70;;;;;;4331792;33;43235;-74
2021/08/21 13:25:08;;;;;;;;;;;21.30;92.70;;;;;;4331583;33;44161;-74
2021/08/21 13:27:38;;;;;;;;;;;21.30;92.70;;;;;;4330981;33;43605;-74
2021/08/21 13:30:06;;;;;;;;;;;21.30;92.60;;;;;;4330430;33;44004;-74
2021/08/21 13:32:34;;;;;;;;;;;21.30;92.70;;;;;;4331520;33;43546;-74
2021/08/21 13:35:03;;;;;;;;;;;21.40;92.70;;;;;;4331174;33;42917;-74
2021/08/21 13:37:32;;;;;;;;;;;21.40;92.70;;;;;;4330961;33;42525;-75
2021/08/21 13:39:59;;;;;;;;;;;21.40;92.70;;;;;;4330301;33;43875;-74
2021/08/21 13:42:26;;;;;;;;;;;21.40;92.60;;;;;;4330827;33;44996;-74
2021/08/21 13:44:53;;;;;;;;;;;21.40;92.80;;;;;;4330854;33;43374;-74
2021/08/21 13:47:22;;;;;;;;;;;21.40;92.70;;;;;;4330770;33;43812;-74
2021/08/21 13:49:52;;;;;;;;;;;21.40;92.70;;;;;;4329748;33;42843;-74
2021/08/21 13:52:24;;;;;;;;;;;21.40;92.70;;;;;;4330851;33;43537;-74
2021/08/21 13:54:57;;;;;;;;;;;21.50;92.70;;;;;;4331183;33;43064;-74
2021/08/21 13:57:24;;;;;;;;;;;21.40;92.60;;;;;;4330794;33;43702;-74
2021/08/21 14:00:05;;;;;;;;;;;21.50;92.70;;;;;;4330900;33;43613;-74
2021/08/21 14:02:32;;;;;;;;;;;21.50;92.60;;;;;;4332943;33;43179;-74
2021/08/21 14:05:00;;;;;;;;;;;21.60;92.60;;;;;;4345481;33;42890;-74
2021/08/21 14:07:30;;;;;;;;;;;21.60;92.70;;;;;;4345666;33;43184;-74
2021/08/21 14:09:57;;;;;;;;;;;21.60;92.60;;;;;;4345186;33;43021;-74
2021/08/21 14:12:24;;;;;;;;;;;21.70;92.60;;;;;;4345267;33;42438;-74
2021/08/21 14:14:54;;;;;;;;;;;21.70;92.70;;;;;;4345278;33;42770;-74
2021/08/21 14:17:23;;;;;;;;;;;21.70;92.60;;;;;;4345467;33;43748;-73
2021/08/21 14:19:50;;;;;;;;;;;21.70;92.60;;;;;;4344992;33;42866;-74
2021/08/21 14:22:17;;;;;;;;;;;21.80;92.60;;;;;;4345195;33;41910;-74
2021/08/21 14:24:44;;;;;;;;;;;21.80;92.50;;;;;;4343977;33;43359;-74
2021/08/21 14:27:17;;;;;;;;;;;21.80;92.30;;;;;;4345118;33;42871;-75
2021/08/21 14:29:46;;;;;;;;;;;21.90;92.40;;;;;;4331883;33;42639;-74
2021/08/21 14:32:14;;;;;;;;;;;21.90;92.30;;;;;;4344375;33;43001;-74